Tiempo atmosférico en la estación meteorológica de Reus Aeropuerto, Tarragona (71 m.)



Fecha
DESCASC
Temp. máxima en grados centígrados (hora)
DESCASC
Temp. mínima en grados centígrados (hora)
DESCASC
Temp. media en grados centígrados
DESCASC
Racha de viento máxima en m/sg (hora)
DESCASC
Velocidad máxima media en intervalos de 10 minutos(hora)
DESCASC
Precipitaciones diarias en mm
DESCASC
Precipitaciones de 00:00 a 06:00 en mm
DESCASC
Precipitaciones de 06:00 a 12:00 en mm
DESCASC
Precipitaciones de 12:00 a 18:00 en mm
DESCASC
Precipitaciones de 18:00 a 24:00 en mm
DESCASC
15-08-2019 31.2 (14:00) 21.7 (07:20) 26.5 9.17 (16:50) 6.67 (17:30) 0 0 0 0 0
14-08-2019 30.1 (12:30) 15.5 (00:00) 22.8 9.72 (13:20) 6.39 (15:30) -- 0 0 -- 0
13-08-2019 30.2 (15:20) 18.6 (00:00) 24.4 14.44 (03:30) 10.28 (03:30) 0 0 0 0 0
12-08-2019 32.2 (16:20) 20 (00:00) 26.1 10.28 (09:50) 7.5 (09:50) 16.7 16.6 0 0 0.1
11-08-2019 31.7 (12:30) 23.6 (00:00) 27.7 10.28 (16:10) 5.83 (13:10) 0 0 0 0 0
10-08-2019 31.8 (14:10) 23.2 (00:00) 27.5 8.33 (15:50) 5.28 (14:50) 0 0 0 0 0
09-08-2019 33.9 (14:00) 23.1 (00:00) 28.5 7.78 (14:20) 5.28 (14:20) 0 0 0 0 0
08-08-2019 32.6 (13:00) 23.9 (00:00) 28.2 8.33 (13:00) 5.83 (13:10) 0 0 0 0 0
07-08-2019 30.9 (12:50) 24.7 (00:00) 27.8 7.78 (12:20) 5.56 (13:20) 0 0 0 0 0
06-08-2019 31.2 (15:30) 23.3 (00:00) 27.3 8.89 (14:00) 5.28 (14:40) 0 0 0 0 0
05-08-2019 32.3 (14:10) 22.5 (00:00) 27.4 7.78 (13:10) 4.17 (14:30) 0 0 0 0 0
04-08-2019 31.1 (15:10) 22.2 (00:00) 26.7 9.17 (14:10) 5.28 (14:40) 0 0 0 0 0
03-08-2019 31.4 (16:10) 21.1 (00:00) 26.3 9.17 (16:10) 5.28 (19:30) 0 0 0 0 0
02-08-2019 33.3 (12:50) 18 (00:00) 25.6 10.28 (17:30) 6.94 (14:20) 0 0 0 0 0
01-08-2019 31 (15:10) 19.8 (00:00) 25.4 9.72 (15:20) 6.39 (15:50) 0 0 0 0 0
31-07-2019 28.1 (11:40) 20.1 (00:00) 24.1 9.17 (13:20) 6.67 (14:10) 3.2 3.2 0 0 0
30-07-2019 33.2 (15:00) 22.9 (00:00) 28.1 11.39 (13:50) 7.22 (16:00) 0 0 0 0 0
29-07-2019 30.6 (16:10) 19.2 (00:00) 24.9 8.33 (13:00) 5 (13:20) 0 0 0 0 0
28-07-2019 32.8 (17:20) 18.7 (00:00) 25.8 14.44 (02:30) 10.28 (18:00) 0 0 0 0 0
27-07-2019 32.9 (17:10) 23 (00:00) 28 14.44 (18:10) 9.72 (18:40) 0 0 0 0 0
26-07-2019 30.9 (11:40) 23 (00:00) 26.9 8.89 (16:30) 6.11 (19:20) 0 0 0 0 0
25-07-2019 31.5 (15:20) 20.8 (00:00) 26.1 7.78 (16:50) 4.44 (14:10) 0 0 0 0 0
24-07-2019 33.1 (12:30) 20.7 (00:00) 26.9 7.78 (14:30) 4.44 (13:30) 0 0 0 0 0
23-07-2019 33.7 (17:40) 20.9 (00:00) 27.3 -- (--) -- (--) 0 0 0 0 0
22-07-2019 33.6 (14:20) 20.1 (00:00) 26.8 8.89 (16:30) 5 (14:40) 0 0 0 0 0
21-07-2019 32.1 (17:20) 20.8 (00:00) 26.4 7.78 (13:30) 4.44 (12:30) 0 0 0 0 0
20-07-2019 31 (15:30) 22 (00:00) 26.5 -- (--) -- (--) 0 0 0 0 0
19-07-2019 30.5 (16:50) 22.2 (00:00) 26.4 8.89 (16:10) 5.28 (15:10) 0 0 0 0 0

Gráficas

Temp. máximas Temp. mínimas Temp. medias Precipitaciones Rachas de viento máximas Velocidades máximas media en intervalos de 10 minutos

Datos horarios

Fecha y hora oficial Temperatura (ºC) Velocidad del viento (km/h) Dirección del viento Racha (km/h) Dirección de racha Precipitación (mm) Presión (hPa) Tendencia (hPa) Humedad (%)
2019-08-17 23:00:00 24.9 0 Calma 8 Oeste 0 1005.3 0.2 87
2019-08-17 22:00:00 25.1 5 Sudoeste 11 Sudoeste 0 1005.3 -0.1 87
2019-08-17 21:00:00 25.9 9 Sur 18 Sudoeste 0 1005.1 -0.8 83
2019-08-17 20:00:00 26.9 12 Sudoeste 18 Sudoeste 0 1005.1 -1 78
2019-08-17 19:00:00 28.2 12 Sudoeste 26 Sur 0 1005.4 -1.1 73
2019-08-17 18:00:00 29.1 17 Sur 26 Sudeste 0 1005.9 -0.8 68
2019-08-17 17:00:00 29.3 17 Sur 28 Sudoeste 0 1006.1 -1 66
2019-08-17 16:00:00 28.8 17 Sur 30 Sur 0 1006.5 -1 69
2019-08-17 15:00:00 28.9 19 Sudeste 30 Sur 0 1006.7 -1 68
2019-08-17 14:00:00 29.3 16 Sudeste 28 Sudeste 0 1007.1 -0.6 67
2019-08-17 13:00:00 29.1 14 Sur 26 Sudeste 0 1007.5 -0.1 67
2019-08-17 12:00:00 28.1 14 Sur 24 Sur 0 1007.7 0.3 71
2019-08-17 11:00:00 27.6 12 Sur 21 Sur 0 1007.7 0.4 74
2019-08-17 10:00:00 27 11 Sudeste 17 Sudeste 0 1007.6 0.6 77
2019-08-17 09:00:00 25.4 6 Nordeste 9 Nordeste 0 1007.4 0.4 79
2019-08-17 08:00:00 23.1 6 Norte 11 Norte 0 1007.3 0.1 88
2019-08-17 07:00:00 22 7 Norte 9 Nordeste 0 1007 -0.3 92
2019-08-17 06:00:00 22.5 5 Norte 11 Norte 0 1007 -0.4 92
2019-08-17 05:00:00 22.6 4 Norte 11 Norte 0 1007.2 -0.7 90
2019-08-17 04:00:00 23.6 8 Norte 9 Norte 0 1007.3 -0.6 88
2019-08-17 03:00:00 24.5 5 Norte 9 Norte 0 1007.4 -0.5 85
2019-08-17 02:00:00 25.1 6 Norte 9 Norte 0 1007.9 0 85
2019-08-17 01:00:00 25.1 5 Oeste 13 Sudoeste 0 1007.9 0.5 87
2019-08-17 00:00:00 25.4 6 Sudoeste 13 Sudoeste 0 1007.9 0.9 86
2019-08-16 23:00:00 24.9 8 Sudoeste 17 Sudoeste 0 1007.9 1.1 87
2019-08-16 22:00:00 25 12 Sudoeste 18 Sudoeste 0 1007.4 0.7 84
2019-08-16 21:00:00 25.6 14 Sudoeste 22 Sudoeste 0 1007 -0.2 81
2019-08-16 20:00:00 27.1 15 Sudoeste 28 Sudoeste 0 1006.8 -1 70
2019-08-16 19:00:00 28.3 19 Sur 32 Sudoeste 0 1006.7 -1.5 62
2019-08-16 18:00:00 29.1 20 Sudoeste 32 Sudoeste 0 1007.2 -1.7 56
2019-08-16 17:00:00 29.6 19 Sudoeste 30 Sudoeste 0 1007.8 -1.5 56
2019-08-16 16:00:00 29.7 19 Sur 30 Sur 0 1008.2 -1.6 62
2019-08-16 15:00:00 29.5 18 Sur 35 Sudoeste 0 1008.9 -1.1 60
2019-08-16 14:00:00 29.9 19 Sur 30 Sur 0 1009.3 -0.9 57
2019-08-16 13:00:00 29.6 16 Sur 28 Sur 0 1009.8 -0.1 56
2019-08-16 12:00:00 29.4 13 Sur 22 Sudoeste 0 1010 0.2 55
2019-08-16 11:00:00 28.4 5 Sudoeste 13 Sudoeste 0 1010.2 0.8 44
2019-08-16 10:00:00 27.3 3 Nordeste 9 Norte 0 1009.9 0.7 50
2019-08-16 09:00:00 24.8 5 Norte 11 Norte 0 1009.8 0.6 55
2019-08-16 08:00:00 22.8 6 Oeste 15 Noroeste 0 1009.4 0.1 57
2019-08-16 07:00:00 22.3 9 Noroeste 13 Noroeste 0 1009.2 -0.4 73
2019-08-16 06:00:00 23.1 9 Noroeste 13 Noroeste 0 1009.2 -0.8 93
2019-08-16 05:00:00 23.8 5 Noroeste 9 Oeste 0 1009.3 -1.1 91
2019-08-16 04:00:00 24.1 4 Oeste 11 Sur 0 1009.6 -0.7 90
2019-08-16 03:00:00 23.9 8 Sur 11 Sur 0 1010 -0.3 90
2019-08-16 02:00:00 24.6 8 Sur 17 Sur 0 1010.4 0.4 88
2019-08-16 01:00:00 25 10 Sur 15 Sur 0 1010.3 0.7 88
2019-08-16 00:00:00 25 6 Sur 11 Sur 0 1010.3 1.3 88
2019-08-15 23:00:00 25.2 7 Sur 11 Sur 0 1010 1.5 84
2019-08-15 22:00:00 25.5 8 Sur 15 Sur 0 1009.6 1.5 82
2019-08-15 21:00:00 25.9 11 Sur 26 Sur 0 1009 0.9 79
2019-08-15 20:00:00 27 18 Sudoeste 32 Sur 0 1008.5 0.2 71
2019-08-15 19:00:00 28.1 21 Sudoeste 33 Sudoeste 0 1008.1 -0.5 64
2019-08-15 18:00:00 28.8 22 Sudoeste 33 Sur 0 1008.1 -0.9 69
2019-08-15 17:00:00 29.6 23 Sudoeste 33 Sudoeste 0 1008.3 -0.4 65
2019-08-15 16:00:00 29.8 23 Sur 32 Sudoeste 0 1008.6 -0.6 63
2019-08-15 15:00:00 29.9 18 Sur 30 Sur 0 1009 -0.7 59
2019-08-15 14:00:00 31 14 Sur 28 Sudeste 0 1008.7 -1.4 46
2019-08-15 13:00:00 30.8 16 Sur 30 Sur 0 1009.2 -0.7 46
2019-08-15 12:00:00 30 3 Sur 17 Sur 0 1009.7 -0.2 46
2019-08-15 11:00:00 28.4 6 Nordeste 15 Norte 0 1010.1 0.6 51
2019-08-15 10:00:00 27.2 10 Oeste 26 Oeste 0 1009.9 1 52
2019-08-15 09:00:00 25.5 9 Oeste 26 Oeste 0 1009.9 1.3 57
2019-08-15 08:00:00 23.6 13 Oeste 26 Oeste 0 1009.5 1.1 63
2019-08-15 07:00:00 21.9 8 Noroeste 11 Noroeste 0 1008.9 0.2 94
2019-08-15 06:00:00 22.6 8 Norte 9 Norte 0 1008.6 -0.5 91
2019-08-15 05:00:00 23 8 Norte 11 Norte 0 1008.4 -0.9 91
2019-08-15 04:00:00 22.5 7 Norte 11 Norte 0 1008.7 -0.5 93
2019-08-15 03:00:00 22.6 9 Norte 11 Noroeste 0 1009.1 -0.2 92
2019-08-15 02:00:00 23.1 5 Norte 9 Norte 0 1009.3 0.1 90
2019-08-15 01:00:00 23.5 3 Norte 5 Norte 0 1009.2 0.4 88
2019-08-15 00:00:00 24 4 Sudoeste 8 Sudoeste 0 1009.3 1 87
2019-08-14 23:00:00 24.1 4 Sudoeste 11 Sudoeste 0 1009.2 1.4 86
2019-08-14 22:00:00 24.7 5 Sur 15 Sudoeste 0 1008.8 1 84
2019-08-14 21:00:00 25.4 12 Sudoeste 22 Sudoeste 0 1008.3 0.6 82
2019-08-14 20:00:00 26.8 15 Sudoeste 24 Sudoeste 0 1007.8 -0.3 75
2019-08-14 19:00:00 27.6 17 Sur 28 Sur 0 1007.8 -0.4 70
2019-08-14 18:00:00 28.1 17 Sur -- -- -- 1007.7 -0.8 69
2019-08-14 17:00:00 28.3 21 Sur 33 Sur 0 1008.1 -0.7 66
2019-08-14 16:00:00 28.7 19 Sur 33 Sur 0 1008.2 -0.9 61
2019-08-14 15:00:00 29.4 19 Sur 30 Sur 0 1008.5 -1 44
2019-08-14 14:00:00 29.6 19 Sur 35 Sudeste 0 1008.8 -1.1 38
2019-08-14 13:00:00 28.9 16 Sudeste 33 Este 0 1009.1 -1.5 36
2019-08-14 12:00:00 28.1 15 Sudeste 24 Sudeste 0 1009.5 -1 35
2019-08-14 11:00:00 26.4 5 Sudoeste 18 Sur 0 1009.9 0 36
2019-08-14 10:00:00 23.6 4 Sudeste 9 Sudeste 0 1010.6 1.2 46
2019-08-14 09:00:00 20.5 5 Este 8 Este 0 1010.5 1.1 63
2019-08-14 08:00:00 17.1 5 Este 8 Este 0 1009.9 0.6 82
2019-08-14 07:00:00 15.7 0 Calma 9 Nordeste 0 1009.4 0 81
2019-08-14 06:00:00 16 4 Nordeste 11 Nordeste 0 1009.4 0.1 81
2019-08-14 05:00:00 16.2 9 Este 13 Oeste 0 1009.3 -0.1 81
2019-08-14 04:00:00 19.2 10 Noroeste 18 Oeste 0 1009.4 0 59
2019-08-14 03:00:00 19.3 7 Noroeste 13 Nordeste 0 1009.3 0 66
2019-08-14 02:00:00 19.3 6 Oeste 17 Noroeste 0 1009.4 0.3 82
2019-08-14 01:00:00 20 11 Noroeste 13 Noroeste 0 1009.4 0.7 77
2019-08-14 00:00:00 21.2 8 Norte 17 Norte 0 1009.3 1.2 80
2019-08-13 23:00:00 22.2 7 Norte 15 Oeste 0 1009.1 1.2 82
2019-08-13 22:00:00 22.9 9 Sudoeste 21 Sudoeste 0 1008.7 0.8 78
2019-08-13 21:00:00 23.9 15 Sudoeste 30 Sudoeste 0 1008.1 0.2 72
2019-08-13 20:00:00 25.1 19 Sudoeste 37 Sudoeste 0 1007.9 0 65
2019-08-13 19:00:00 25.9 28 Sur 45 Sudoeste 0 1007.9 -0.5 59
2019-08-13 18:00:00 26.8 32 Sur 41 Sur 0 1007.9 -0.9 53
2019-08-13 17:00:00 28.2 27 Sur 52 Sudoeste 0 1007.9 -1.5 44
2019-08-13 16:00:00 29.9 28 Sudoeste 39 Sudoeste 0 1008.4 -1.6 33
2019-08-13 15:00:00 29.1 18 Sudoeste 35 Oeste 0 1008.8 -1.6 33
2019-08-13 14:00:00 28.2 21 Sudoeste 33 Oeste 0 1009.4 -1.3 37
2019-08-13 13:00:00 27.4 18 Oeste 45 Oeste 0 1010 -0.5 36
2019-08-13 12:00:00 25.3 23 Oeste 42 Noroeste 0 1010.4 -0.1 37
2019-08-13 11:00:00 24.7 11 Este 22 Norte 0 1010.7 0 46
2019-08-13 10:00:00 21.7 16 Oeste 28 Oeste 0 1010.5 0.4 51
2019-08-13 09:00:00 20.6 7 Oeste 21 Noroeste 0 1010.5 0.6 54
2019-08-13 08:00:00 19.2 13 Noroeste 32 Oeste 0 1010.7 0.6 60
2019-08-13 07:00:00 18.7 16 Oeste 37 Oeste 0 1010.1 -0.1 59
2019-08-13 06:00:00 18.9 13 Noroeste 41 Noroeste 0 1009.9 -0.4 59
2019-08-13 05:00:00 19.4 13 Noroeste 41 Noroeste 0 1010.1 0.1 58
2019-08-13 04:00:00 20.1 33 Oeste 52 Oeste 0 1010.2 0.2 56
2019-08-13 03:00:00 20.8 33 Oeste 46 Oeste 0 1010.3 0.5 54
2019-08-13 02:00:00 21.4 28 Oeste 39 Oeste 0 1010 0.7 50
2019-08-13 01:00:00 22.5 26 Oeste 37 Oeste 0 1010 1.4 48
2019-08-13 00:00:00 23.4 22 Oeste 35 Noroeste 0.1 1009.8 2.2 49
2019-08-12 23:00:00 23.6 4 Este 13 Este 0 1009.3 2.4 79
2019-08-12 22:00:00 23.6 10 Este 17 Este 0 1008.6 2.3 82
2019-08-12 21:00:00 25.1 12 Sudeste 24 Sudeste 0 1007.6 1.4 72
2019-08-12 20:00:00 26.7 14 Sudeste 24 Sur 0 1006.9 1 63
2019-08-12 19:00:00 28.1 16 Sur 28 Sur 0 1006.3 0.3 53
2019-08-12 18:00:00 28.9 21 Sudeste 33 Sur 0 1006.2 -0.4 49
2019-08-12 17:00:00 30.3 23 Sur 37 Sur 0 1005.9 -1.1 43
2019-08-12 16:00:00 31.6 15 Sudoeste 26 Oeste 0 1006 -1.3 33
2019-08-12 15:00:00 30.4 16 Sudoeste 30 Sudoeste 0 1006.6 -0.9 37
2019-08-12 14:00:00 28.9 14 Oeste 37 Oeste 0 1007 -0.3 41
2019-08-12 13:00:00 28 19 Oeste 30 Oeste 0 1007.3 0.7 44
2019-08-12 12:00:00 26.5 17 Oeste 28 Oeste 0 1007.5 1.3 47
2019-08-12 11:00:00 23.7 22 Oeste 33 Oeste 0 1007.3 1.4 55
2019-08-12 10:00:00 22.6 26 Oeste 37 Oeste 0 1006.6 1.1 58
2019-08-12 09:00:00 21.5 21 Oeste 35 Oeste 0 1006.2 1.2 65
2019-08-12 08:00:00 21.6 20 Oeste 33 Oeste 0 1005.9 1 66
2019-08-12 07:00:00 21.6 13 Oeste 22 Oeste 0 1005.5 0.6 72
2019-08-12 06:00:00 22.3 2 Sudoeste 13 Noroeste 0 1005 0 92
2019-08-12 05:00:00 22.4 3 Oeste 15 Noroeste 0 1004.9 0 92
2019-08-12 04:00:00 22 12 Noroeste 28 Noroeste 0.6 1004.9 0.3 85
2019-08-12 03:00:00 21.5 11 Sur 35 Oeste 16 1005 0.1 93
2019-08-12 02:00:00 25.5 21 Este 35 Este 0 1004.9 0.3 81
2019-08-12 01:00:00 25.9 21 Este 32 Este 0 1004.6 1.3 77
2019-08-12 00:00:00 26.7 15 Este 26 Este 0 1004.9 1.9 87
2019-08-11 23:00:00 26.1 8 Este 13 Este 0 1004.6 1.9 86
2019-08-11 22:00:00 26.7 7 Sudoeste 13 Sur 0 1003.3 0.7 83
2019-08-11 21:00:00 27.7 8 Sur 13 Sur 0 1003 0 77
2019-08-11 20:00:00 29.1 12 Sudoeste 17 Sudoeste 0 1002.7 -0.5 71
2019-08-11 19:00:00 30.2 9 Sur 18 Sudoeste 0 1002.6 -0.7 66
2019-08-11 18:00:00 29.3 10 Sudoeste 24 Sur 0 1003 -0.6 71
2019-08-11 17:00:00 30.9 13 Sudoeste 37 Sudeste 0 1003.2 -0.9 65
2019-08-11 16:00:00 30.7 17 Sudeste 30 Sur 0 1003.3 -1.1 68
2019-08-11 15:00:00 30.9 15 Sur 28 Sudeste 0 1003.6 -1.6 60
2019-08-11 14:00:00 30.4 17 Sudeste 30 Sur 0 1004.1 -1.7 60
2019-08-11 13:00:00 31 19 Sudeste 28 Sudeste 0 1004.4 -1.4 58
2019-08-11 12:00:00 30.2 4 Norte 17 Este 0 1005.2 -0.9 56
2019-08-11 11:00:00 28.7 9 Sudeste 21 Sudeste 0 1005.8 0 62
2019-08-11 10:00:00 28.1 13 Sudeste 18 Sudeste 0 1005.8 -0.1 69
2019-08-11 09:00:00 26.9 6 Este 13 Norte 0 1006.1 0.4 77
2019-08-11 08:00:00 25.1 10 Norte 13 Norte 0 1005.8 -0.2 84
2019-08-11 07:00:00 24.5 8 Norte 13 Nordeste 0 1005.9 -0.2 83
2019-08-11 06:00:00 24.8 10 Nordeste 15 Nordeste 0 1005.7 -1 83
2019-08-11 05:00:00 24.5 9 Nordeste 13 Nordeste 0 1006 -1.2 83
2019-08-11 04:00:00 24.3 9 Nordeste 13 Norte 0 1006.1 -1.3 86
2019-08-11 03:00:00 24.4 5 Noroeste 11 Norte 0 1006.7 -0.9 91
2019-08-11 02:00:00 24.9 7 Norte 11 Nordeste 0 1007.2 -0.4 91
2019-08-11 01:00:00 24.6 8 Este 13 Nordeste 0 1007.4 0.2 93
2019-08-11 00:00:00 25.2 11 Este 13 Este 0 1007.6 1 91
2019-08-10 23:00:00 25.5 9 Nordeste 17 Este 0 1007.6 1.2 89
2019-08-10 22:00:00 25.9 10 Este 15 Este 0 1007.2 0.6 88
2019-08-10 21:00:00 26.6 12 Este 18 Sudeste 0 1006.6 -0.2 84
2019-08-10 20:00:00 28.3 10 Sudeste 18 Sudeste 0 1006.4 -0.7 74
2019-08-10 19:00:00 29.2 12 Sur 26 Sur 0 1006.6 -0.7 69
2019-08-10 18:00:00 30.1 13 Sudeste 28 Sudeste 0 1006.8 -0.8 66
2019-08-10 17:00:00 30.8 14 Sur 28 Sudeste 0 1007.1 -0.7 63
2019-08-10 16:00:00 31.1 17 Sudeste 30 Sudeste 0 1007.3 -0.8 62
2019-08-10 15:00:00 31.3 18 Sur 28 Sur 0 1007.6 -0.9 66
2019-08-10 14:00:00 31.2 15 Sudeste 28 Sudeste 0 1007.8 -0.7 64
2019-08-10 13:00:00 30.9 17 Sudeste 28 Sur 0 1008.1 -0.3 67
2019-08-10 12:00:00 30.1 16 Sur 26 Sur 0 1008.5 0.5 72
2019-08-10 11:00:00 29.9 16 Sudeste 28 Sur 0 1008.5 1.5 73
2019-08-10 10:00:00 30 12 Sudoeste 18 Sudoeste 0 1008.4 2.6 63
2019-08-10 09:00:00 28.1 10 Sur 17 Sur 0 1008 3.6 76
2019-08-10 08:00:00 26.6 9 Sur 21 Sur 0 1007 3.1 80
2019-08-10 07:00:00 25 13 Sur 21 Sur 0 1005.8 1.9 96
2019-08-10 06:00:00 23.6 3 Sudeste 11 Noroeste 0 1004.4 0.6 93
2019-08-10 05:00:00 25.6 4 Norte 15 Norte 0 1003.9 0 85
2019-08-10 04:00:00 24.5 8 Norte 11 Norte 0 1003.9 0 87
2019-08-10 03:00:00 24.5 2 Norte 9 Norte 0 1003.8 0.2 85
2019-08-10 02:00:00 25.1 8 Norte 13 Norte 0 1003.9 0.5 82
2019-08-10 01:00:00 25.8 8 Norte 11 Norte 0 1003.9 1 87
2019-08-10 00:00:00 26.2 0 Calma 11 Noroeste 0 1003.6 1.4 93
2019-08-09 23:00:00 27.3 9 Noroeste 13 Noroeste 0 1003.4 1.5 89
2019-08-09 22:00:00 27.1 8 Sudoeste 15 Sudoeste 0 1002.9 0.9 91
2019-08-09 21:00:00 28.8 10 Sudoeste 13 Sudoeste 0 1002.2 0.2 77
2019-08-09 20:00:00 30.2 8 Sudoeste 18 Sur 0 1001.9 -0.3 73
2019-08-09 19:00:00 31.1 12 Sudoeste 21 Sudoeste 0 1002 -0.6 74
2019-08-09 18:00:00 32 11 Sur 22 Sur 0 1002 -0.9 68
2019-08-09 17:00:00 33.1 11 Sudoeste 22 Sur 0 1002.2 -0.6 60
2019-08-09 16:00:00 32.8 12 Sur 24 Sur 0 1002.6 -0.6 61
2019-08-09 15:00:00 32.6 17 Sur 28 Sur 0 1002.9 -0.7 65
2019-08-09 14:00:00 33.6 15 Sudeste 24 Sudeste 0 1002.8 -0.7 57
2019-08-09 13:00:00 32.2 11 Sudeste 21 Sur 0 1003.2 -0.2 63
2019-08-09 12:00:00 31.2 14 Sudeste 24 Sur 0 1003.6 -0.1 70
2019-08-09 11:00:00 30.6 5 Sudoeste 13 Sur 0 1003.5 0 66
2019-08-09 10:00:00 28.9 4 Este 9 Nordeste 0 1003.4 0.1 74
2019-08-09 09:00:00 26.7 6 Norte 18 Norte 0 1003.7 0.4 82
2019-08-09 08:00:00 24.7 13 Norte 17 Norte 0 1003.5 0.4 71
2019-08-09 07:00:00 24.3 12 Norte 17 Norte 0 1003.3 0.1 67
2019-08-09 06:00:00 23.8 10 Norte 11 Norte 0 1003.3 0.1 67
2019-08-09 05:00:00 23.4 9 Norte 11 Norte 0 1003.1 -0.2 70
2019-08-09 04:00:00 23.6 6 Norte 13 Norte 0 1003.2 -0.3 72
2019-08-09 03:00:00 24.2 9 Norte 13 Norte 0 1003.2 -0.3 70
2019-08-09 02:00:00 24.6 10 Norte 11 Norte 0 1003.3 -0.1 71
2019-08-09 01:00:00 25.3 0 Calma 5 Norte 0 1003.5 0.5 80
2019-08-09 00:00:00 26.1 6 Oeste 13 Oeste 0 1003.5 1.1 85
2019-08-08 23:00:00 26.1 9 Sudoeste 13 Sudoeste 0 1003.4 1.1 86
2019-08-08 22:00:00 26.9 8 Sudoeste 11 Sudoeste 0 1003 0.6 82
2019-08-08 21:00:00 28.5 8 Sudoeste 17 Sudoeste 0 1002.4 -0.3 67
2019-08-08 20:00:00 29.9 12 Sudoeste 18 Sudoeste 0 1002.3 -0.6 60
2019-08-08 19:00:00 30.8 11 Sudoeste 24 Sudoeste 0 1002.4 -0.7 64
2019-08-08 18:00:00 31.2 15 Sudoeste 26 Sudoeste 0 1002.7 -0.5 62
2019-08-08 17:00:00 31.6 18 Sudoeste 28 Sudoeste 0 1002.9 -0.3 63
2019-08-08 16:00:00 31.7 19 Sur 30 Sudoeste 0 1003.1 0 63
2019-08-08 15:00:00 31.6 17 Sur 30 Sur 0 1003.2 -0.3 63
2019-08-08 14:00:00 32.1 15 Sur 30 Sur 0 1003.2 -0.2 59
2019-08-08 13:00:00 32.4 20 Sudeste 30 Sudeste 0 1003.1 -0.3 57
2019-08-08 12:00:00 31.6 10 Sudeste 22 Sur 0 1003.5 0.1 62
2019-08-08 11:00:00 30.7 13 Sur 22 Sudeste 0 1003.4 0.2 67
2019-08-08 10:00:00 29.4 5 Sudeste 11 Sudeste 0 1003.4 0.5 71
2019-08-08 09:00:00 27.4 4 Nordeste 9 Este 0 1003.4 0.6 81
2019-08-08 08:00:00 24.9 3 Este 13 Norte 0 1003.2 0.4 89
2019-08-08 07:00:00 24.1 8 Norte 13 Norte 0 1002.9 0.2 94
2019-08-08 06:00:00 24.1 5 Norte 11 Norte 0 1002.8 -0.5 93
2019-08-08 05:00:00 24.8 0 Calma 9 Norte 0 1002.8 -0.7 94
2019-08-08 04:00:00 25.5 6 Noroeste 8 Norte 0 1002.7 -0.9 93
2019-08-08 03:00:00 25.7 6 Oeste 11 Sudoeste 0 1003.3 0.2 93
2019-08-08 02:00:00 26 5 Sudoeste 9 Oeste 0 1003.5 0.4 91
2019-08-08 01:00:00 26.2 5 Sudoeste 11 Sur 0 1003.6 0.6 92
2019-08-08 00:00:00 26.1 6 Este 9 Este 0 1003.1 1.1 93
2019-08-07 23:00:00 25.7 6 Este 9 Este 0 1003.1 0.2 92
2019-08-07 22:00:00 26.5 6 Sur 13 Sudeste 0 1003 0.7 87
2019-08-07 21:00:00 27.2 4 Sur 17 Sur 0 1002 -0.3 83
2019-08-07 20:00:00 27.3 10 Sur 18 Sur 0 1002.9 0.7 87
2019-08-07 19:00:00 27.9 10 Sudeste 22 Sur 0 1002.3 0.2 84
2019-08-07 18:00:00 28.6 12 Sudeste 24 Sudeste 0 1002.3 0.2 78
2019-08-07 17:00:00 29.1 11 Sudeste 22 Sur 0 1002.2 -0.3 76
2019-08-07 16:00:00 29.4 14 Sudeste 24 Sur 0 1002.1 -0.3 76
2019-08-07 15:00:00 28.7 17 Sudeste 28 Sur 0 1002.1 -0.3 80
2019-08-07 14:00:00 29.4 18 Sudeste 28 Sudeste 0 1002.5 0.2 76
2019-08-07 13:00:00 30 17 Sudeste 28 Sudeste 0 1002.4 0.5 72
2019-08-07 12:00:00 29.8 14 Sudeste 26 Sudeste 0 1002.4 1.3 72
2019-08-07 11:00:00 29.6 12 Sudeste 21 Sudeste 0 1002.3 1.6 71
2019-08-07 10:00:00 27.8 5 Sudeste 11 Sudeste 0 1001.9 1.2 76
2019-08-07 09:00:00 26.5 3 Este 11 Este 0 1001.1 0.7 81
2019-08-07 08:00:00 25.8 5 Nordeste 11 Nordeste 0 1000.7 -0.2 84
2019-08-07 07:00:00 25.3 6 Norte 13 Norte 0 1000.7 -0.2 87
2019-08-07 06:00:00 25 8 Norte 9 Norte 0 1000.4 -0.9 89
2019-08-07 05:00:00 25.3 6 Norte 11 Norte 0 1000.9 -0.8 90
2019-08-07 04:00:00 25.3 6 Nordeste 13 Nordeste 0 1000.9 -1 90
2019-08-07 03:00:00 25.3 8 Nordeste 13 Norte 0 1001.3 -0.4 88
2019-08-07 02:00:00 25.9 5 Nordeste 8 Norte 0 1001.7 -0.1 86
2019-08-07 01:00:00 25.2 0 Calma 8 Oeste 0 1001.9 1 87
2019-08-07 00:00:00 25.4 4 Sudoeste 8 Sudoeste 0 1001.7 1 86
2019-08-06 23:00:00 25.4 8 Sudoeste 9 Sudoeste 0 1001.8 1 85
2019-08-06 22:00:00 26.3 4 Sudeste 11 Sur 0 1000.9 -0.1 81
2019-08-06 21:00:00 27.5 6 Sur 11 Sur 0 1000.7 -0.7 77
2019-08-06 20:00:00 28.5 8 Sudoeste 18 Sur 0 1000.8 -1.2 73
2019-08-06 19:00:00 29.4 12 Sur 21 Sudoeste 0 1001 -1.4 69
2019-08-06 18:00:00 30 11 Sur 24 Sudeste 0 1001.4 -1.4 68
2019-08-06 17:00:00 30.6 14 Sur 24 Sur 0 1002 -1.6 68
2019-08-06 16:00:00 30.8 15 Sudeste 24 Sudeste 0 1002.4 -1.6 67
2019-08-06 15:00:00 30.8 14 Sur 28 Sur 0 1002.8 -1.6 66
2019-08-06 14:00:00 30.8 16 Sudeste 32 Sudeste 0 1003.6 -0.8 64
2019-08-06 13:00:00 30.4 11 Sudeste 24 Sudeste 0 1004 -0.1 63
2019-08-06 12:00:00 29.6 13 Sudeste 26 Este 0 1004.4 0.6 64
2019-08-06 11:00:00 28.9 11 Sudeste 21 Sudeste 0 1004.4 0.7 69
2019-08-06 10:00:00 28.3 8 Este 15 Este 0 1004.1 0.2 67
2019-08-06 09:00:00 26.7 10 Nordeste 17 Nordeste 0 1003.8 -0.2 70
2019-08-06 08:00:00 25.1 8 Norte 15 Norte 0 1003.7 -0.6 86
2019-08-06 07:00:00 24.4 12 Norte 17 Norte 0 1003.9 -0.6 88
2019-08-06 06:00:00 23.6 9 Norte 13 Norte 0 1004 -0.8 89
2019-08-06 05:00:00 23.7 9 Norte 13 Norte 0 1004.3 -0.7 85
2019-08-06 04:00:00 23.4 11 Norte 13 Norte 0 1004.5 -0.4 84
2019-08-06 03:00:00 23.6 9 Norte 11 Norte 0 1004.8 0.2 83
2019-08-06 02:00:00 24 9 Norte 11 Norte 0 1005 0.2 76
2019-08-06 01:00:00 24.4 6 Norte 9 Norte 0 1004.9 0.6 72
2019-08-06 00:00:00 25.2 5 Nordeste 8 Nordeste 0 1004.6 0.9 78
2019-08-05 23:00:00 25.7 0 Calma 5 Sur 0 1004.8 1.4 71
2019-08-05 22:00:00 26.3 3 Sur 8 Sur 0 1004.3 0.8 68
2019-08-05 21:00:00 27.6 8 Sur 18 Sur 0 1003.7 -0.6 60
2019-08-05 20:00:00 30.6 9 Sudeste 15 Sudeste 0 1003.4 -1.2 47
2019-08-05 19:00:00 31.4 6 Sudeste 17 Sudoeste 0 1003.5 -1.7 50
2019-08-05 18:00:00 31.1 12 Sudoeste 24 Sur 0 1004.3 -1.1 50
2019-08-05 17:00:00 31.8 14 Sur 24 Sur 0 1004.6 -1.3 45
2019-08-05 16:00:00 31.9 15 Sur 24 Sudoeste 0 1005.2 -1.1 46
2019-08-05 15:00:00 31.7 14 Sur 26 Sur 0 1005.4 -0.9 47
2019-08-05 14:00:00 31.8 14 Sur 28 Sudoeste 0 1005.9 -0.4 43
2019-08-05 13:00:00 31.4 12 Sur 22 Sudeste 0 1006.3 0 46
2019-08-05 12:00:00 30.8 11 Sudeste 21 Sur 0 1006.3 -0.1 54
2019-08-05 11:00:00 29.5 5 Sur 13 Sur 0 1006.3 0 58
2019-08-05 10:00:00 28.1 4 Nordeste 13 Este 0 1006.3 0.4 72
2019-08-05 09:00:00 26.1 6 Nordeste 15 Norte 0 1006.4 0.8 82
2019-08-05 08:00:00 24 10 Norte 15 Norte 0 1006.3 0.4 79
2019-08-05 07:00:00 22.9 12 Norte 17 Norte 0 1005.9 -0.2 82
2019-08-05 06:00:00 22.6 12 Norte 18 Norte 0 1005.6 -0.6 80
2019-08-05 05:00:00 22.8 14 Norte 18 Norte 0 1005.9 -0.4 76
2019-08-05 04:00:00 22.6 12 Norte 13 Norte 0 1006.1 -0.2 80
2019-08-05 03:00:00 22.9 6 Norte 9 Norte 0 1006.2 0 81
2019-08-05 02:00:00 23.6 4 Noroeste -- -- 0 1006.3 0.3 85
2019-08-05 01:00:00 24.1 3 Sudoeste 5 Sudoeste 0 1006.3 1 87
2019-08-05 00:00:00 24.8 4 Sudoeste 9 Oeste 0 1006.2 1.5 85
2019-08-04 23:00:00 25.3 9 Oeste 9 Oeste 0 1006 1.3 82
2019-08-04 22:00:00 25.9 4 Sur 11 Sur 0 1005.3 0.7 78
2019-08-04 21:00:00 27.2 7 Sur 13 Sur 0 1004.7 -0.1 63
2019-08-04 20:00:00 28.4 11 Sudeste 15 Sudeste 0 1004.7 -0.6 56
2019-08-04 19:00:00 29.8 8 Sur 21 Sur 0 1004.6 -1.2 54
2019-08-04 18:00:00 30.2 11 Sudoeste 32 Sudoeste 0 1004.8 -0.9 54
2019-08-04 17:00:00 30.3 15 Sur 28 Sur 0 1005.3 -0.3 56
2019-08-04 16:00:00 30.5 15 Sur 30 Sur 0 1005.8 0 58
2019-08-04 15:00:00 30.3 15 Sur 33 Sur 0 1005.7 -0.1 62
2019-08-04 14:00:00 29.9 18 Sur 28 Sur 0 1005.6 -0.2 65
2019-08-04 13:00:00 29.5 14 Sur 26 Sur 0 1005.8 0 66
2019-08-04 12:00:00 29.8 15 Sur 26 Sudeste 0 1005.8 0.2 65
2019-08-04 11:00:00 28.3 9 Sudeste 17 Sudeste 0 1005.8 0.5 72
2019-08-04 10:00:00 27.7 7 Sur 11 Sur 0 1005.8 0.7 71
2019-08-04 09:00:00 25.8 6 Nordeste 13 Nordeste 0 1005.6 0.6 81
2019-08-04 08:00:00 23.5 7 Norte 11 Norte 0 1005.3 0.3 88
2019-08-04 07:00:00 22.7 10 Norte 13 Norte 0 1005.1 -0.3 90
2019-08-04 06:00:00 22.9 11 Norte 13 Norte 0 1005 -0.6 87
2019-08-04 05:00:00 22.8 9 Norte 11 Norte 0 1005 -0.6 90
2019-08-04 04:00:00 23.4 9 Noroeste -- -- 0 1005.4 -0.1 86
2019-08-04 03:00:00 23.2 7 Noroeste -- -- 0 1005.6 0.3 81
2019-08-04 02:00:00 23.3 6 Noroeste 8 Noroeste 0 1005.6 0.6 76
2019-08-04 01:00:00 24.3 2 Oeste 9 Sudoeste 0 1005.5 0.8 83
2019-08-04 00:00:00 24.5 6 Sudoeste 9 Sudoeste 0 1005.3 0.9 79
2019-08-03 23:00:00 25.2 8 Sudoeste 11 Sudoeste 0 1005 0.7 74
2019-08-03 22:00:00 26.1 5 Oeste 17 Oeste 0 1004.7 0.2 70
2019-08-03 21:00:00 26.6 11 Sudoeste 18 Sudoeste 0 1004.4 -0.4 65
2019-08-03 20:00:00 27.4 11 Sur 24 Sudoeste 0 1004.3 -0.8 60
2019-08-03 19:00:00 29.2 13 Sur 26 Sur 0 1004.5 -1.2 62
2019-08-03 18:00:00 30 15 Sudeste 28 Sur 0 1004.8 -1.4 58
2019-08-03 17:00:00 31.3 18 Sudoeste 33 Sur 0 1005.1 -1.4 43
2019-08-03 16:00:00 31.1 14 Sur 28 Sudoeste 0 1005.7 -0.9 52
2019-08-03 15:00:00 30.4 14 Sur 28 Sur 0 1006.2 -0.4 57
2019-08-03 14:00:00 30.6 16 Sur 26 Sudoeste 0 1006.5 0 50
2019-08-03 13:00:00 30.7 14 Sur 26 Sur 0 1006.6 0.1 50
2019-08-03 12:00:00 30.7 11 Sudoeste 22 Sudoeste 0 1006.6 0.1 42
2019-08-03 11:00:00 30.2 10 Sur 17 Sudoeste 0 1006.5 0.2 40
2019-08-03 10:00:00 28.4 6 Sudoeste 13 Sudoeste 0 1006.5 0.3 43
2019-08-03 09:00:00 26.7 3 Noroeste 13 Norte 0 1006.5 0.5 47
2019-08-03 08:00:00 23.2 8 Norte 13 Norte 0 1006.3 0 56
2019-08-03 07:00:00 21.8 10 Norte 15 Norte 0 1006.2 -0.3 62
2019-08-03 06:00:00 21.4 11 Norte 17 Norte 0 1006 -0.8 66
2019-08-03 05:00:00 21.6 10 Norte 17 Norte 0 1006.3 -0.5 68
2019-08-03 04:00:00 21.2 11 Norte 13 Nordeste 0 1006.5 -0.2 68
2019-08-03 03:00:00 21.6 7 Norte 13 Norte 0 1006.8 0 68
2019-08-03 02:00:00 21.9 6 Norte 11 Norte 0 1006.8 0.1 72
2019-08-03 01:00:00 23 9 Norte 11 Norte 0 1006.7 0.3 71
2019-08-03 00:00:00 24 6 Noroeste 9 Sudoeste 0 1006.8 0.9 75
2019-08-02 23:00:00 24.1 8 Sudoeste 11 Sudoeste 0 1006.7 1 75
2019-08-02 22:00:00 24.8 8 Sudoeste 13 Sudoeste 0 1006.4 0.7 72
2019-08-02 21:00:00 26.1 9 Sudoeste 17 Sudoeste 0 1005.9 -0.2 65
2019-08-02 20:00:00 27.8 12 Sudoeste 21 Sudoeste 0 1005.7 -0.5 59
2019-08-02 19:00:00 28.9 13 Sur 24 Sudoeste 0 1005.7 -0.5 54
2019-08-02 18:00:00 29.6 14 Sur 37 Sudoeste 0 1006.1 0.2 51
2019-08-02 17:00:00 30.4 22 Sudoeste 35 Sur 0 1006.2 0.7 45
2019-08-02 16:00:00 31.4 22 Sur 33 Sur 0 1006.2 0.7 39
2019-08-02 15:00:00 32.3 22 Sur 33 Sur 0 1005.9 0.3 33
2019-08-02 14:00:00 32.9 21 Sur 33 Sur 0 1005.5 -0.2 34
2019-08-02 13:00:00 32.9 17 Sur 24 Sur 0 1005.5 -0.2 35
2019-08-02 12:00:00 32.4 12 Sur 22 Sudoeste 0 1005.6 0 37
2019-08-02 11:00:00 30.9 5 Oeste 15 Oeste 0 1005.7 0.2 37
2019-08-02 10:00:00 28.4 0 Calma 9 Sur 0 1005.7 0.4 37
2019-08-02 09:00:00 24.9 4 Norte 13 Nordeste 0 1005.6 0.4 47
2019-08-02 08:00:00 21.2 11 Nordeste 15 Nordeste 0 1005.5 0.1 55
2019-08-02 07:00:00 18.2 9 Nordeste 11 Nordeste 0 1005.3 -0.2 75
2019-08-02 06:00:00 19.8 4 Nordeste 15 Noroeste 0 1005.2 -0.2 65
2019-08-02 05:00:00 20.2 11 Noroeste 15 Noroeste 0 1005.4 0.2 70
2019-08-02 04:00:00 21 5 Norte 13 Nordeste 0 1005.5 0.4 71
2019-08-02 03:00:00 21.3 6 Nordeste 13 Norte 0 1005.4 0.4 78
2019-08-02 02:00:00 22.2 10 Norte 13 Norte 0 1005.2 0.5 76
2019-08-02 01:00:00 23.1 9 Norte 11 Norte 0 1005.1 0.9 70
2019-08-02 00:00:00 23 9 Norte 11 Norte 0 1005 1.8 72
2019-08-01 23:00:00 23.9 4 Norte 9 Este 0 1004.7 1.9 69
2019-08-01 22:00:00 24 8 Sudeste 18 Sudeste 0 1004.2 0.9 69
2019-08-01 21:00:00 25.1 13 Sudeste 18 Sudeste 0 1003.2 -0.4 70
2019-08-01 20:00:00 26.7 13 Este 22 Sudeste 0 1002.8 -1.3 65
2019-08-01 19:00:00 28.4 13 Este 21 Este 0 1003.3 -1 50
2019-08-01 18:00:00 29 11 Sudeste 21 Sudeste 0 1003.6 -0.3 45
2019-08-01 17:00:00 29.5 14 Sudeste 33 Este 0 1004.1 -0.7 40
2019-08-01 16:00:00 30.3 19 Sudeste 35 Sudeste 0 1004.3 -1.4 37
2019-08-01 15:00:00 30.6 19 Este 28 Sudeste 0 1003.9 -1.8 38
2019-08-01 14:00:00 28.6 14 Sudeste 28 Sudeste 0 1004.8 -1 47
2019-08-01 13:00:00 28.7 17 Sudeste 33 Sur 0 1005.7 -0.1 51
2019-08-01 12:00:00 28.2 13 Sudeste 22 Sudeste 0 1005.7 0.6 56
2019-08-01 11:00:00 27.5 12 Sudeste 26 Sudeste 0 1005.8 0.9 57
2019-08-01 10:00:00 26.6 11 Sudeste 18 Sudeste 0 1005.8 1.5 61
2019-08-01 09:00:00 25.2 5 Este 11 Nordeste 0 1005.1 0.2 61
2019-08-01 08:00:00 21.7 4 Norte 9 Nordeste 0 1004.9 -0.4 80
2019-08-01 07:00:00 19.9 7 Nordeste 13 Norte 0 1004.3 -1.9 91
2019-08-01 06:00:00 20.5 7 Norte 13 Norte 0 1004.9 -1.9 89
2019-08-01 05:00:00 21.5 8 Norte 15 Norte 0 1005.3 -1.8 86
2019-08-01 04:00:00 22 13 Norte 18 Norte 0 1006.2 -1 84
2019-08-01 03:00:00 21.8 10 Norte 13 Norte 0 1006.8 -1 86
2019-08-01 02:00:00 22.3 9 Norte 13 Nordeste 0 1007.1 -0.4 84
2019-08-01 01:00:00 23.1 10 Nordeste 13 Nordeste 0 1007.2 0.5 83
2019-08-01 00:00:00 22.7 7 Nordeste 8 Este 0 1007.8 0.9 86
2019-07-31 23:00:00 23.3 5 Este 11 Este 0 1007.5 0.4 82
2019-07-31 22:00:00 23 6 Este 13 Este 0 1006.7 -0.3 84
2019-07-31 21:00:00 24.3 5 Sudeste 17 Sudeste 0 1006.9 -0.7 76
2019-07-31 20:00:00 25.2 12 Sudeste 18 Sur 0 1007.1 -1 73
2019-07-31 19:00:00 26.2 11 Sudeste 24 Sudeste 0 1007 -1.6 69
2019-07-31 18:00:00 26 13 Sudeste 26 Sudeste 0 1007.6 -1.4 71
2019-07-31 17:00:00 26.4 14 Sudeste 24 Sudeste 0 1008.1 -1.2 69
2019-07-31 16:00:00 27.1 15 Sudeste 30 Sudeste 0 1008.6 -0.8 65
2019-07-31 15:00:00 26.4 19 Sudeste 32 Sudeste 0 1009 -0.4 68
2019-07-31 14:00:00 25.4 22 Sudeste 33 Sudeste 0 1009.3 0.8 72
2019-07-31 13:00:00 27.4 21 Sudeste 32 Sudeste 0 1009.4 0.2 67
2019-07-31 12:00:00 26.9 7 Sudeste 22 Norte 0 1009.4 -0.1 56
2019-07-31 11:00:00 26.6 17 Norte 24 Norte 0 1008.5 -0.7 57
2019-07-31 10:00:00 24.6 11 Norte 17 Nordeste 0 1009.2 0.2 58
2019-07-31 09:00:00 22 7 Este 9 Nordeste 0 1009.5 1 70
2019-07-31 08:00:00 21.2 6 Norte 11 Nordeste 0 1009.2 1.3 79
2019-07-31 07:00:00 20.2 8 Nordeste 11 Nordeste 0 1009 1.2 86
2019-07-31 06:00:00 22.9 3 Noroeste 13 Nordeste 0 1008.5 0.4 83
2019-07-31 05:00:00 23 6 Norte 9 Norte 0 1007.9 -0.4 94
2019-07-31 04:00:00 22.5 4 Nordeste 26 Oeste 0 1007.8 -0.6 92
2019-07-31 03:00:00 23.3 3 Sur 22 Sudeste 3 1008.1 0 93
2019-07-31 02:00:00 24.6 11 Sudoeste 24 Oeste 0.2 1008.3 0.4 87
2019-07-31 01:00:00 24.5 8 Este 13 Sudeste 0 1008.4 1.2 82
2019-07-31 00:00:00 24.7 9 Sudeste 15 Sudeste 0 1008.1 1.7 83
2019-07-30 23:00:00 25.2 11 Sudeste 15 Sur 0 1007.9 1.9 83
2019-07-30 22:00:00 25.5 10 Sudeste 15 Sur 0 1007.2 1.5 85
2019-07-30 21:00:00 26.3 11 Sur 18 Sur 0 1006.4 1.1 76
2019-07-30 20:00:00 27.4 10 Sudeste 22 Sudeste 0 1006 0.9 69
2019-07-30 19:00:00 28.6 17 Sudeste 32 Sudeste 0 1005.7 0.8 60
2019-07-30 18:00:00 29.7 21 Sur 33 Sur 0 1005.3 -0.1 54
2019-07-30 17:00:00 31.2 23 Sudeste 33 Sudeste 0 1005.1 -0.7 45
2019-07-30 16:00:00 32.1 26 Sudeste 35 Sur 0 1004.9 -1.3 39
2019-07-30 15:00:00 32.9 19 Sur 32 Sudoeste 0 1005.4 -1 33
2019-07-30 14:00:00 31.9 13 Oeste 41 Oeste 0 1005.8 -0.4 34
2019-07-30 13:00:00 30.9 19 Sudoeste 33 Oeste 0 1006.2 0.2 36
2019-07-30 12:00:00 30.6 21 Oeste 39 Oeste 0 1006.4 0.9 38
2019-07-30 11:00:00 28.5 19 Oeste 37 Noroeste 0 1006.2 1.2 44
2019-07-30 10:00:00 26.9 18 Oeste 26 Oeste 0 1006 1.6 48
2019-07-30 09:00:00 25.2 14 Noroeste 28 Oeste 0 1005.5 1.7 53
2019-07-30 08:00:00 23.3 22 Oeste 32 Noroeste 0 1005 1.5 57
2019-07-30 07:00:00 23.1 21 Oeste 30 Oeste 0 1004.4 1.1 60
2019-07-30 06:00:00 24 19 Oeste 30 Oeste 0 1003.8 0.4 59
2019-07-30 05:00:00 24.2 9 Oeste 13 Oeste 0 1003.5 0.6 89
2019-07-30 04:00:00 24.5 5 Nordeste 9 Este 0 1003.3 0.4 95
2019-07-30 03:00:00 24.8 5 Este 13 Este 0 1003.4 0.8 95
2019-07-30 02:00:00 25.1 0 Calma 4 Sudeste 0 1002.9 0.5 89
2019-07-30 01:00:00 25 2 Sudoeste 5 Sudoeste 0 1002.9 1.1 88
2019-07-30 00:00:00 24.8 4 Sudoeste 8 Sudoeste 0 1002.6 1.2 87
2019-07-29 23:00:00 24.8 5 Sudoeste 9 Sudoeste 0 1002.4 1.4 86
2019-07-29 22:00:00 25.1 8 Sudoeste 18 Sudoeste 0 1001.8 1 83
2019-07-29 21:00:00 26.4 13 Sudoeste 18 Sudoeste 0 1001.4 0.5 78
2019-07-29 20:00:00 27.8 13 Sur 22 Sur 0 1001 -0.1 74
2019-07-29 19:00:00 29.1 12 Sur 22 Sudoeste 0 1000.8 -0.5 61
2019-07-29 18:00:00 29.2 14 Sur 24 Sur 0 1000.9 -0.6 67
2019-07-29 17:00:00 30.2 12 Sur 26 Sudoeste 0 1001.1 -0.6 55
2019-07-29 16:00:00 30.1 14 Sudoeste 30 Sudoeste 0 1001.3 -0.7 57
2019-07-29 15:00:00 29.6 15 Sudoeste 28 Sudoeste 0 1001.5 -0.6 56
2019-07-29 14:00:00 29.6 17 Sur 30 Sur 0 1001.7 -0.4 54
2019-07-29 13:00:00 29.8 17 Sur 30 Sudoeste 0 1002 -0.3 47
2019-07-29 12:00:00 29.1 13 Sur 28 Sudeste 0 1002.1 0 47
2019-07-29 11:00:00 28.3 10 Sur 21 Sudeste 0 1002.1 0.4 55
2019-07-29 10:00:00 26.5 5 Sudeste 11 Sudeste 0 1002.3 0.9 59
2019-07-29 09:00:00 23.9 8 Norte 17 Nordeste 0 1002.1 0.8 60
2019-07-29 08:00:00 20.8 8 Este 15 Norte 0 1001.7 0.5 70
2019-07-29 07:00:00 20.3 13 Norte 17 Norte 0 1001.4 -0.1 75
2019-07-29 06:00:00 19.8 10 Norte 18 Norte 0 1001.3 -0.4 73
2019-07-29 05:00:00 20.6 15 Norte 21 Norte 0 1001.2 -0.6 69
2019-07-29 04:00:00 21 15 Norte 22 Norte 0 1001.5 -0.3 68
2019-07-29 03:00:00 21.3 15 Norte 21 Norte 0 1001.7 -0.1 67
2019-07-29 02:00:00 21.4 15 Norte 22 Norte 0 1001.8 0 70
2019-07-29 01:00:00 21.8 12 Norte 15 Norte 0 1001.8 0.8 67
2019-07-29 00:00:00 23 5 Oeste 11 Oeste 0 1001.8 1.4 67
2019-07-28 23:00:00 23.6 6 Oeste 21 Sudoeste 0 1001.8 1.7 66
2019-07-28 22:00:00 24.1 15 Sudoeste 35 Sudoeste 0 1001 1.4 65
2019-07-28 21:00:00 24.9 18 Sudoeste 39 Sudoeste 0 1000.4 1.1 62
2019-07-28 20:00:00 25.9 30 Sudoeste 50 Sur 0 1000.1 1.2 58
2019-07-28 19:00:00 26.8 34 Sur 52 Sudoeste 0 999.6 0.2 55
2019-07-28 18:00:00 30.7 37 Sudoeste 50 Sudoeste 0 999.3 -0.3 44
2019-07-28 17:00:00 32.4 28 Oeste 46 Oeste 0 998.9 -1.1 29
2019-07-28 16:00:00 31.9 23 Oeste 48 Oeste 0 999.4 -1 28
2019-07-28 15:00:00 31.1 27 Oeste 42 Oeste 0 999.6 -1 30
2019-07-28 14:00:00 30.4 21 Oeste 32 Oeste 0 1000 -1 32
2019-07-28 13:00:00 28.8 18 Este 30 Este 0 1000.4 -0.5 37
2019-07-28 12:00:00 27.4 14 Sudoeste 30 Oeste 0 1000.6 0.2 40
2019-07-28 11:00:00 25.4 15 Oeste 26 Noroeste 0 1001 0.7 43
2019-07-28 10:00:00 22.9 17 Noroeste 42 Oeste 0 1000.9 1.2 51
2019-07-28 09:00:00 21 30 Oeste 42 Oeste 0 1000.4 1.2 56
2019-07-28 08:00:00 19.8 23 Oeste 37 Oeste 0 1000.3 1.7 59
2019-07-28 07:00:00 18.8 26 Oeste 41 Oeste 0 999.7 1.5 62
2019-07-28 06:00:00 19 17 Oeste 50 Oeste 0 999.2 1.9 62
2019-07-28 05:00:00 19.8 36 Oeste 50 Oeste 0 998.6 1.4 60
2019-07-28 04:00:00 20.2 35 Oeste 52 Oeste 0 998.2 1.4 58
2019-07-28 03:00:00 21.7 22 Oeste 52 Oeste 0 997.3 -0.2 53
2019-07-28 02:00:00 21.5 8 Sur 26 Sur 0 997.2 0.4 56
2019-07-28 01:00:00 22.1 9 Sur 42 Oeste 0 996.8 1.1 55
2019-07-28 00:00:00 23.1 18 Oeste 39 Oeste 0 997.5 2.2 54
2019-07-27 23:00:00 25.1 15 Oeste 50 Oeste 0 996.8 2.6 45
2019-07-26 12:00:00 29.8 15 Sudeste 26 Sudeste 0 1002.6 -0.3 63
2019-07-26 11:00:00 29.8 10 Sur 18 Sudeste 0 1002.8 -0.1 67
2019-07-26 10:00:00 28.6 6 Sur 11 Sur 0 1003.1 0.4 70
2019-07-26 09:00:00 26.9 3 Nordeste 13 Norte 0 1002.9 0 77
2019-07-26 08:00:00 24.8 9 Norte 13 Nordeste 0 1002.9 -0.1 77
2019-07-26 07:00:00 23.1 10 Norte 13 Norte 0 1002.7 -0.7 84
2019-07-26 06:00:00 23.6 9 Norte 11 Norte 0 1002.9 -1.1 83
2019-07-26 05:00:00 24 8 Nordeste 15 Norte 0 1003 -1.6 83
2019-07-26 04:00:00 24.5 11 Norte 15 Norte 0 1003.4 -1.3 74
2019-07-26 03:00:00 24.6 8 Norte 11 Norte 0 1004 -1 73
2019-07-26 02:00:00 24.3 8 Norte 13 Norte 0 1004.6 -0.4 75
2019-07-26 01:00:00 24.5 7 Norte 9 Norte 0 1004.7 -0.1 80
2019-07-26 00:00:00 25.7 5 Oeste 8 Oeste 0 1005 0.7 90
2019-07-25 23:00:00 25.5 3 Sudoeste 9 Sudoeste 0 1005 0.7 90
2019-07-25 22:00:00 26.1 8 Sudoeste 11 Sudoeste 0 1004.8 0.4 85
2019-07-25 21:00:00 27.7 5 Sur 17 Sur 0 1004.3 -0.4 75
2019-07-25 20:00:00 29.3 10 Sudeste 18 Sudeste 0 1004.3 -0.7 69
2019-07-25 19:00:00 30.4 13 Sur 21 Sur 0 1004.4 -0.9 65
2019-07-25 18:00:00 30.7 12 Sur 24 Sur 0 1004.7 -1.1 60
2019-07-25 17:00:00 31 14 Sudeste 28 Sudeste 0 1005 -1 63
2019-07-25 16:00:00 31.1 16 Sudeste 26 Sur 0 1005.3 -0.9 63
2019-07-25 15:00:00 31.1 14 Sudeste 26 Sur 0 1005.8 -0.3 64
2019-07-25 14:00:00 30.8 14 Sudeste 24 Sudeste 0 1006 -0.2 63
2019-07-25 13:00:00 30.5 14 Sudeste 22 Sudeste 0 1006.2 -0.2 64
2019-07-25 12:00:00 30.4 12 Sudeste 26 Sur 0 1006.1 -0.3 64
2019-07-25 11:00:00 29.6 9 Sudeste 17 Sur 0 1006.2 -0.1 67
2019-07-25 10:00:00 28.2 6 Este 13 Este 0 1006.4 0.3 70
2019-07-25 09:00:00 26.5 7 Nordeste 9 Norte 0 1006.4 0.7 56
2019-07-25 08:00:00 23.1 7 Nordeste 13 Norte 0 1006.3 0.5 71
2019-07-25 07:00:00 20.9 9 Norte 11 Norte 0 1006.1 -0.1 79
2019-07-25 06:00:00 21.4 8 Norte 11 Nordeste 0 1005.7 -0.8 84
2019-07-25 05:00:00 22.1 12 Norte 13 Norte 0 1005.8 -1.1 81
2019-07-25 04:00:00 22.7 8 Norte 13 Norte 0 1006.2 -0.7 82
2019-07-25 03:00:00 23 10 Norte 11 Norte 0 1006.5 -0.4 84
2019-07-25 02:00:00 23.5 10 Norte -- -- 0 1006.9 -0.1 83
2019-07-25 01:00:00 24.3 9 Norte 11 Norte 0 1006.9 0.6 87
2019-07-25 00:00:00 24.8 8 Norte 9 Norte 0 1006.9 0.8 85
2019-07-24 23:00:00 25.7 0 Calma 4 Sudeste 0 1007 1 89
2019-07-24 22:00:00 26.3 3 Sudeste 11 Sudeste 0 1006.3 0.1 85
2019-07-24 21:00:00 27.6 9 Sudeste 15 Sur 0 1006.1 -0.3 75
2019-07-24 20:00:00 29.2 10 Sudeste 18 Sudeste 0 1006 -0.6 64
2019-07-24 19:00:00 30.1 12 Sudeste 22 Sudeste 0 1006.2 -0.6 61
2019-07-24 18:00:00 31.3 13 Sudeste 28 Sur 0 1006.4 -0.9 53
2019-07-24 17:00:00 31.8 14 Sur 22 Sudeste 0 1006.6 -0.8 52
2019-07-24 16:00:00 31.9 14 Sudeste 24 Sudeste 0 1006.8 -0.6 53
2019-07-24 15:00:00 31.7 14 Sur 28 Sudeste 0 1007.3 -0.4 54
2019-07-24 14:00:00 32 16 Sudeste 26 Sudeste 0 1007.4 -0.4 50
2019-07-24 13:00:00 32.5 14 Sudeste 24 Sur 0 1007.4 -0.2 43
2019-07-24 12:00:00 31.9 12 Sur 21 Sur 0 1007.7 0.1 49
2019-07-24 11:00:00 31 10 Sudoeste 17 Sudoeste 0 1007.8 0.4 46
2019-07-24 10:00:00 28.3 3 Nordeste 15 Norte 0 1007.6 0.4 66
2019-07-24 09:00:00 26.1 10 Norte 17 Norte 0 1007.6 0.7 64
2019-07-24 08:00:00 23.6 10 Norte 15 Norte 0 1007.4 0.3 57
2019-07-24 07:00:00 21.1 6 Norte 11 Norte 0 1007.2 -0.1 77
2019-07-24 06:00:00 21.1 4 Norte 13 Norte 0 1006.9 -0.7 70
2019-07-24 05:00:00 21.6 4 Norte 11 Norte 0 1007.1 -0.8 63
2019-07-24 04:00:00 22.6 10 Norte 15 Norte 0 1007.3 -0.8 59
2019-07-24 03:00:00 23.1 11 Norte 13 Norte 0 1007.6 -0.3 59
2019-07-24 02:00:00 23.4 9 Norte 13 Norte 0 1007.9 0.1 60
2019-07-24 01:00:00 24.1 10 Norte 13 Norte 0 1008.1 0.6 59
2019-07-24 00:00:00 24.8 3 Noroeste 8 Norte 0 1007.9 0.8 64
2019-07-23 23:00:00 25.8 4 Sudoeste -- -- 0 1007.8 0.7 61
2019-07-23 22:00:00 27.3 4 Sur 9 Sudoeste 0 1007.5 0.1 52
2019-07-23 21:00:00 29.4 8 Sudoeste 18 Sudoeste 0 1007.1 -0.5 46
2019-07-23 20:00:00 31.2 14 Sudoeste 26 Sudoeste 0 1007.1 -1.1 45
2019-07-23 19:00:00 32.3 17 Sudoeste 28 Sudoeste 0 1007.4 -1.2 44
2019-07-23 18:00:00 33.4 15 Sudoeste 26 Sudoeste 0 1007.6 -1.2 41
2019-07-23 17:00:00 32.5 17 Sudoeste 32 Sudoeste 0 1008.2 -0.8 46
2019-07-23 16:00:00 32.6 18 Sur 30 Sur 0 1008.6 -0.7 48
2019-07-23 15:00:00 32.9 21 Sur 30 Sur 0 1008.8 -0.4 45
2019-07-23 14:00:00 32.9 18 Sur 26 Sudoeste 0 1009 -- 44
2019-07-23 13:00:00 32.6 18 Sudoeste 30 Sudoeste 0 1009.3 -0.1 39
2019-07-23 12:00:00 31.7 17 Sudoeste 28 Sur 0 1009.2 -0.4 47
2019-07-23 11:00:00 -- -- -- -- -- -- -- -- --
2019-07-23 10:00:00 29.3 9 Sudoeste 15 Sudoeste 0 1009.4 0.2 62
2019-07-23 09:00:00 27.1 3 Sudeste 8 Este 0 1009.6 0.6 58
2019-07-23 08:00:00 23.5 5 Norte -- -- 0 1009.4 0.2 64
2019-07-23 07:00:00 21.4 4 Nordeste -- -- 0 1009.2 -0.5 67
2019-07-23 06:00:00 22.1 4 Norte -- -- 0 1009 -1.1 62
2019-07-23 05:00:00 21.7 6 Norte 9 Norte 0 1009.2 -1.3 63
2019-07-23 04:00:00 22.6 5 Norte 8 Norte 0 1009.7 -1.1 62
2019-07-23 03:00:00 23.4 4 Norte 9 Norte 0 1010.1 -0.9 64
2019-07-23 02:00:00 24.3 8 Norte 17 Norte 0 1010.5 -0.8 64
2019-07-23 01:00:00 23.6 8 Nordeste 9 Nordeste 0 1010.8 -0.3 74
2019-07-23 00:00:00 24.1 4 Sudoeste 11 Sudoeste 0 1011 0 82
2019-07-22 23:00:00 25.2 9 Sudoeste 11 Sudoeste 0 1011.3 0.4 79
2019-07-22 22:00:00 26.9 9 Sudoeste 13 Oeste 0 1011.1 -0.1 70
2019-07-22 21:00:00 29 7 Sudoeste 17 Sudoeste 0 1011 -0.5 60
2019-07-22 20:00:00 30.8 13 Sudoeste 18 Sudoeste 0 1010.9 -0.9 52
2019-07-22 19:00:00 31.7 14 Sur 24 Sur 0 1011.2 -1 53
2019-07-22 18:00:00 32.3 17 Sur 28 Sudoeste 0 1011.5 -0.8 52
2019-07-22 17:00:00 32.5 15 Sudoeste 32 Sudoeste 0 1011.8 -0.6 52
2019-07-22 16:00:00 32.7 17 Sur 30 Sudoeste 0 1012.2 -0.3 50
2019-07-22 15:00:00 32.3 16 Sur 28 Sur 0 1012.3 -0.3 53
2019-07-22 14:00:00 33.1 15 Sur 26 Sur 0 1012.4 -0.3 41
2019-07-22 13:00:00 32.8 15 Sur 28 Sur 0 1012.5 -0.2 40
2019-07-22 12:00:00 32.8 14 Sur 22 Sudoeste 0 1012.6 -0.2 38
2019-07-22 11:00:00 31.7 9 Sur 17 Sur 0 1012.7 0 39
2019-07-22 10:00:00 29.7 2 Noroeste 11 Nordeste 0 1012.7 0.1 42
2019-07-22 09:00:00 26.7 9 Nordeste 15 Norte 0 1012.8 0.3 52
2019-07-22 08:00:00 23.1 9 Norte 15 Norte 0 1012.7 0.3 63
2019-07-22 07:00:00 21.2 12 Norte 15 Norte 0 1012.6 0.1 73
2019-07-22 06:00:00 20.7 -- -- -- -- 0 1012.5 0 82
2019-07-22 05:00:00 21 4 Norte 8 Noroeste 0 1012.4 -0.5 84
2019-07-22 04:00:00 21.4 4 Nordeste 11 Norte 0 1012.5 -0.6 86
2019-07-22 03:00:00 22.5 9 Norte 11 Norte 0 1012.5 -0.4 83
2019-07-22 02:00:00 22.9 9 Norte -- -- 0 1012.9 0.4 84
2019-07-22 01:00:00 23.8 8 Norte 9 Norte 0 1013.1 1.3 90
2019-07-22 00:00:00 24.5 3 Nordeste 5 Nordeste 0 1012.9 1.5 92
2019-07-21 23:00:00 24.6 5 Este 8 Este 0 1012.5 1.3 90
2019-07-21 22:00:00 25.4 3 Sudeste 11 Sudeste 0 1011.8 0.9 85
2019-07-21 21:00:00 26.6 10 Sudeste 15 Sudeste 0 1011.4 0.3 77
2019-07-21 20:00:00 28.3 10 Sudeste 18 Sudeste 0 1011.2 -0.3 66
2019-07-21 19:00:00 29.9 12 Sur 18 Sur 0 1010.9 -0.9 60
2019-07-21 18:00:00 31.3 12 Sur 24 Sur 0 1011.1 -1 51
2019-07-21 17:00:00 31.7 11 Sur 24 Sur 0 1011.5 -0.9 40
2019-07-21 16:00:00 31.5 13 Sudeste 26 Sudeste 0 1011.8 -0.7 43
2019-07-21 15:00:00 31 15 Sur 24 Sudeste 0 1012.1 -0.2 48
2019-07-21 14:00:00 30.4 15 Sudeste 28 Sudeste 0 1012.4 0.5 54
2019-07-21 13:00:00 29.3 15 Sudeste 24 Sudeste 0 1012.5 0.8 66
2019-07-21 12:00:00 28.8 15 Sudeste 24 Sudeste 0 1012.3 1 70
2019-07-21 11:00:00 28.8 12 Sur 18 Sudeste 0 1011.9 1.1 64
2019-07-21 10:00:00 28.6 8 Sudeste 17 Sudeste 0 1011.7 1.3 55
2019-07-21 09:00:00 26.2 6 Este 13 Nordeste 0 1011.3 1.1 62
2019-07-21 08:00:00 23 9 Nordeste 11 Nordeste 0 1010.8 0.7 79
2019-07-21 07:00:00 20.9 7 Nordeste 11 Este 0 1010.4 0.1 92
2019-07-21 06:00:00 21.8 4 Norte 8 Norte 0 1010.2 -0.1 91
2019-07-21 05:00:00 21.6 5 Nordeste 8 Nordeste 0 1010.1 -0.3 94
2019-07-21 04:00:00 23.6 6 Norte 13 Norte 0 1010.3 -0.1 91
2019-07-21 03:00:00 24.1 11 Norte 15 Norte 0 1010.3 0.3 92
2019-07-21 02:00:00 24.4 10 Nordeste 13 Nordeste 0 1010.4 1 92
2019-07-21 01:00:00 24.6 8 Nordeste 9 Nordeste 0 1010.4 1.8 91
2019-07-21 00:00:00 24.9 8 Nordeste 11 Nordeste 0 1010 1.9 91
2019-07-20 23:00:00 24.7 8 Este 11 Este 0 1009.4 1.8 90
2019-07-20 22:00:00 25.5 6 Este 17 Sudeste 0 1008.6 1.3 87
2019-07-20 21:00:00 26.8 11 Sudeste 17 Sudeste 0 1008.1 0.5 78
2019-07-20 20:00:00 28.9 14 Sudeste 18 Sudeste 0 1007.6 -0.2 56
2019-07-20 19:00:00 30 11 Sudeste 21 Sudeste 0 1007.3 -0.6 56
2019-07-20 18:00:00 29.9 12 Sudeste 30 Sudeste 0 1007.6 -0.2 56
2019-07-20 17:00:00 30.8 14 Sur 28 Sur 0 1007.8 0.3 52
2019-07-20 16:00:00 30.6 18 Sur 28 Sur 0 1007.9 0.6 55
2019-07-20 15:00:00 30.6 17 Sur 30 Sudeste 0 1007.8 0.8 55
2019-07-20 14:00:00 30 18 Sur 30 Sur 0 1007.5 0.6 62
2019-07-20 13:00:00 29.7 18 Sur 30 Sudeste 0 1007.3 0.1 66
2019-07-20 12:00:00 29.6 18 Sur 26 Sudeste 0 1007 -0.2 66
2019-07-20 11:00:00 29 6 Este 15 Este 0 1006.9 0 63
2019-07-20 10:00:00 26.1 3 Nordeste 11 Nordeste 0 1007.2 0.7 77
2019-07-20 09:00:00 25.5 4 Nordeste 11 Nordeste 0 1007.2 1.1 83
2019-07-20 08:00:00 24.1 7 Nordeste 11 Nordeste 0 1006.9 0.8 88
2019-07-20 07:00:00 22.3 -- -- -- -- 0 1006.5 0.4 91
2019-07-20 06:00:00 22.1 8 Norte -- -- 0 1006.1 -0.1 92
2019-07-20 05:00:00 22.7 7 Norte -- -- 0 1006.1 -0.3 90
2019-07-20 04:00:00 -- 8 Norte 9 Norte 0 1006.1 -0.5 --
2019-07-20 03:00:00 23.1 7 Norte 9 Norte 0 1006.2 -0.5 88
2019-07-20 02:00:00 23.8 8 Norte -- -- 0 1006.4 -0.3 86
2019-07-20 01:00:00 24.2 3 Sur 5 Sudoeste 0 1006.6 0.2 85
2019-07-20 00:00:00 24.4 5 Sudoeste 8 Sudoeste 0 1006.7 0.5 87
2019-07-19 23:00:00 24.6 6 Sudoeste 9 Sur 0 1006.7 0.5 86
2019-07-19 22:00:00 24.9 6 Sur 13 Sur 0 1006.4 0.3 83
2019-07-19 21:00:00 26.1 9 Sur 17 Sur 0 1006.2 -0.3 76
2019-07-19 20:00:00 27.3 13 Sur 22 Sur 0 1006.2 -0.6 68
2019-07-19 19:00:00 28.3 15 Sur 24 Sudeste 0 1006.1 -1.2 66
2019-07-19 18:00:00 29.7 14 Sur 26 Sur 0 1006.5 -1.2 51
2019-07-19 17:00:00 29.9 18 Sudeste 32 Sudeste 0 1006.8 -1.2 53
2019-07-19 16:00:00 29.8 17 Sudeste 28 Este 0 1007.3 -0.7 56
2019-07-19 15:00:00 29.9 15 Sudeste 26 Sur 0 1007.7 -0.4 57
2019-07-19 14:00:00 29.3 15 Sur 28 Sur 0 1008 0.1 64
2019-07-19 13:00:00 29.1 15 Sudeste 28 Sudeste 0 1008 0 65
2019-07-19 12:00:00 28.1 13 Sur 26 Sur 0 1008.1 0.2 70
2019-07-19 11:00:00 28 13 Sur 22 Sur 0 1007.9 0.5 69
2019-07-19 10:00:00 26.6 8 Sudeste 15 Sudeste 0 1008 0.8 75
2019-07-19 09:00:00 25.9 6 Este 11 Sur 0 1007.9 0.8 82
2019-07-19 08:00:00 23.7 9 Norte 11 Norte 0 1007.4 0.2 88
2019-07-19 07:00:00 22.4 9 Norte 15 Norte 0 1007.2 0 93
2019-07-19 06:00:00 22.4 8 Norte 9 Norte 0 1007.1 -0.3 92
2019-07-19 05:00:00 22.8 7 Norte 9 Norte 0 1007.2 -0.3 92
2019-07-19 04:00:00 -- -- -- -- -- 0 1007.2 -0.2 --
2019-07-19 03:00:00 23.5 7 Nordeste 9 Este 0 1007.4 0.4 91
2019-07-19 02:00:00 24.1 0 Calma 5 Sudeste 0 1007.5 0.8 91
2019-07-19 01:00:00 24.1 3 Sur 4 Sudeste 0 1007.4 1.3 90
2019-07-19 00:00:00 24.2 4 Sur -- -- 0 1007 1.4 89